Aérodrome :
LOGIN :

S'inscrire | Disclaimer

   EN    FR    IT 

 










Légende :    VFR   VFR Marginal   IFR   IFR Intensif   IFR Très Intensif
Visi : 
Plafond : 
>= 8 km
>= 3000ft
5 à 8 km
1000 à 3000 ft
1500m à 5 km
500 à 1000 ft
800 à 1500m
200 à 500 ft
< 800m
< 200 ft
Symboles :   Orages  Brouillard  Fortes neiges  Fortes précipitations  Vent > 20 kt
SIGMETs :   Divers  Orages  Givrage  Turbulence  Onde Orograph.  Cendres Volcan.






- Altitude de l'aérodrome : 74 ft
- Code IATA : MRS


LFML - Marseille / Marignane

DERNIER METAR :
  • 212300Z AUTO 13004KT CAVOK 06/01 Q1027 NOSIG

METARs EXPIRÉS :
  • 212230Z AUTO 16003KT CAVOK 06/01 Q1027 NOSIG
  • 212200Z AUTO 33003KT CAVOK 09/02 Q1027 NOSIG
  • 212130Z AUTO 36003KT 9999 FEW016 09/02 Q1027 NOSIG

TAF TAF LFML
Valide du 21 à 21h jusqu'au 23 à 03h UTC


212000Z 2121/2303 34010KT CAVOK TX16/2214Z TN03/2205Z
BECMG 2123/2202 VRB03KT
TEMPO 2212/2217 25006KT
TEMPO 2300/2303 2000 BR OVC008
PROB30
TEMPO 2300/2303 0800 FG VV///
ATIS : +33 4 42 31 15 15



MET'MAP, la Météo Aéronautique d'un coup d'oeil ! - Copyright ORBIFLY Décembre 2007 - Disclaimer

ORBIFLY MET'MAP TEAM :

Programmation & Développement : Alexandra Zaïnal
Sur une idée originale de : Baudouin d'Aumeries
Assistance à la programmation : Marc-Olivier Méhu
Soutien technique & logistique : Manuel Goepfert

Contact : metmap@orbifly.com




SOURCES & CREDITS :

   NOAA